Time;durP1;ratioP1;P1;durP2;ratioP2;P2;SDS_P1;SDS_P2;PMS_P1;PMS_P2;Temp;Humidity;BMP_temperature;BMP_pressure;BME280_temperature;BME280_humidity;BME280_pressure;Samples;Min_cycle;Max_cycle;Signal;HPM_P1;HPM_P2
2022/09/28 00:01:41;;;;;;;1.77;0.30;;;;;;;-144.22;100.00;60274.75;6281210;28;20269;-41
2022/09/28 00:04:43;;;;;;;0.30;0.30;;;;;;;-144.22;100.00;60274.75;6281173;28;20607;-41
2022/09/28 00:07:45;;;;;;;1.07;0.30;;;;;;;-144.22;100.00;60274.75;6282279;28;20705;-41
2022/09/28 00:10:54;;;;;;;0.87;0.43;;;;;;;-144.22;100.00;60274.75;6282114;28;20324;-40
2022/09/28 00:14:02;;;;;;;0.33;0.30;;;;;;;-144.22;100.00;60274.75;6280991;28;20234;-41
2022/09/28 00:17:04;;;;;;;1.33;0.30;;;;;;;-144.22;100.00;60274.75;6280775;28;20233;-41
2022/09/28 00:20:06;;;;;;;0.67;0.50;;;;;;;-144.22;100.00;60274.75;6269117;28;20245;-41
2022/09/28 00:23:08;;;;;;;1.97;0.40;;;;;;;-144.22;100.00;60274.75;6281332;28;20231;-41
2022/09/28 00:26:10;;;;;;;0.90;0.40;;;;;;;-144.22;100.00;60274.75;6280979;28;20757;-41
2022/09/28 00:29:25;;;;;;;1.63;0.40;;;;;;;-144.22;100.00;60274.75;6280878;28;20255;-41
2022/09/28 00:32:28;;;;;;;2.77;0.47;;;;;;;-144.22;100.00;60274.75;6271117;28;20314;-41
2022/09/28 00:35:30;;;;;;;1.33;0.33;;;;;;;-144.22;100.00;60274.75;6262510;28;20449;-40
2022/09/28 00:38:34;;;;;;;0.20;0.20;;;;;;;-144.22;100.00;60274.75;6280530;28;20236;-41
2022/09/28 00:41:36;;;;;;;1.83;0.40;;;;;;;-144.22;100.00;60274.75;6280608;28;20235;-41
2022/09/28 00:44:52;;;;;;;3.13;0.40;;;;;;;-144.22;100.00;60274.75;6238705;28;20388;-41
2022/09/28 00:47:57;;;;;;;0.83;0.47;;;;;;;-144.22;100.00;60274.75;6260630;28;20245;-41
2022/09/28 00:51:05;;;;;;;0.20;0.20;;;;;;;-144.22;100.00;60274.75;6255208;28;20235;-41
2022/09/28 00:54:08;;;;;;;0.50;0.40;;;;;;;-144.22;100.00;60274.75;6258395;28;20240;-41
2022/09/28 00:57:10;;;;;;;0.60;0.40;;;;;;;-144.22;100.00;60274.75;6279855;28;20657;-41
2022/09/28 01:00:13;;;;;;;0.30;0.30;;;;;;;-144.22;100.00;60274.75;6262490;28;20681;-41
2022/09/28 01:03:16;;;;;;;3.53;0.60;;;;;;;-144.22;100.00;60274.75;6278446;28;20204;-40
2022/09/28 01:06:26;;;;;;;0.70;0.50;;;;;;;-144.22;100.00;60274.75;6280453;28;20612;-41
2022/09/28 01:09:29;;;;;;;1.73;0.70;;;;;;;-144.22;100.00;60274.75;6261216;28;20387;-41
2022/09/28 01:12:31;;;;;;;0.40;0.30;;;;;;;-144.22;100.00;60274.75;6280289;28;20731;-41
2022/09/28 01:15:42;;;;;;;0.40;0.40;;;;;;;-144.22;100.00;60274.75;6261193;28;20780;-41
2022/09/28 01:19:03;;;;;;;1.70;0.37;;;;;;;-144.22;100.00;60274.75;6261925;28;20227;-40
2022/09/28 01:22:07;;;;;;;4.03;0.77;;;;;;;-144.22;100.00;60274.75;6280201;28;20237;-41
2022/09/28 01:25:38;;;;;;;2.57;0.50;;;;;;;-144.22;100.00;60274.75;6278282;28;20313;-41
2022/09/28 01:28:43;;;;;;;0.63;0.57;;;;;;;-144.22;100.00;60274.75;6261854;28;20240;-41
2022/09/28 01:31:51;;;;;;;1.47;0.30;;;;;;;-144.22;100.00;60274.75;6279358;28;20388;-41
2022/09/28 01:35:08;;;;;;;1.00;0.30;;;;;;;-144.22;100.00;60274.75;6278540;28;20238;-40
2022/09/28 01:38:29;;;;;;;0.20;0.20;;;;;;;-144.22;100.00;60274.75;6279529;28;20315;-40
2022/09/28 01:41:35;;;;;;;0.30;0.30;;;;;;;-144.22;100.00;60274.75;6277440;28;20227;-40
2022/09/28 01:44:41;;;;;;;0.53;0.27;;;;;;;-144.22;100.00;60274.75;6261274;28;20371;-40
2022/09/28 01:47:46;;;;;;;1.07;0.33;;;;;;;-144.22;100.00;60274.75;6277880;28;20233;-40
2022/09/28 01:50:55;;;;;;;0.50;0.30;;;;;;;-144.22;100.00;60274.75;6277460;28;20240;-40
2022/09/28 01:54:06;;;;;;;1.33;0.60;;;;;;;-144.22;100.00;60274.75;6277171;28;20232;-40
2022/09/28 01:57:14;;;;;;;3.77;0.50;;;;;;;-144.22;100.00;60274.75;6277270;28;20213;-40
2022/09/28 02:00:18;;;;;;;0.60;0.30;;;;;;;-144.22;100.00;60274.75;6277995;28;20312;-41
2022/09/28 02:03:33;;;;;;;1.13;0.47;;;;;;;-144.22;100.00;60274.75;6277643;28;20593;-41
2022/09/28 02:06:45;;;;;;;0.30;0.30;;;;;;;-144.22;100.00;60274.75;6278410;28;20291;-41
2022/09/28 02:09:57;;;;;;;0.30;0.30;;;;;;;-144.22;100.00;60274.75;6260388;28;20241;-41
2022/09/28 02:13:13;;;;;;;0.37;0.30;;;;;;;-144.22;100.00;60274.75;6277392;28;20318;-42
2022/09/28 02:16:36;;;;;;;0.30;0.30;;;;;;;-144.22;100.00;60274.75;6277532;28;20656;-40
2022/09/28 02:19:40;;;;;;;0.20;0.20;;;;;;;-144.22;100.00;60274.75;6277400;28;20236;-40
2022/09/28 02:22:54;;;;;;;0.30;0.30;;;;;;;-144.22;100.00;60274.75;6260018;28;20273;-40
2022/09/28 02:26:05;;;;;;;2.17;0.50;;;;;;;-144.22;100.00;60274.75;6260282;28;20236;-41
2022/09/28 02:29:07;;;;;;;0.37;0.37;;;;;;;-144.22;100.00;60274.75;6278625;28;20226;-40
2022/09/28 02:32:10;;;;;;;2.40;0.33;;;;;;;-144.22;100.00;60274.75;6278693;28;20236;-41
2022/09/28 02:35:16;;;;;;;1.50;0.33;;;;;;;-144.22;100.00;60274.75;6277693;28;20225;-41
2022/09/28 02:38:18;;;;;;;0.70;0.40;;;;;;;-144.22;100.00;60274.75;6275967;28;20239;-40
2022/09/28 02:41:54;;;;;;;0.40;0.30;;;;;;;-144.22;100.00;60274.75;6276864;28;20728;-40
2022/09/28 02:45:47;;;;;;;0.70;0.40;;;;;;;-144.22;100.00;60274.75;6259712;28;20240;-41
2022/09/28 02:49:04;;;;;;;1.70;0.30;;;;;;;-144.22;100.00;60274.75;6261029;28;20241;-41
2022/09/28 02:52:41;;;;;;;0.53;0.30;;;;;;;-144.22;100.00;60274.75;6276844;28;20236;-41
2022/09/28 02:56:28;;;;;;;0.30;0.30;;;;;;;-144.22;100.00;60274.75;6235956;28;20610;-41
2022/09/28 02:59:38;;;;;;;1.07;0.27;;;;;;;-144.22;100.00;60274.75;6254444;28;20238;-40
2022/09/28 03:03:04;;;;;;;0.20;0.20;;;;;;;-144.22;100.00;60274.75;6276876;28;20229;-41
2022/09/28 03:06:19;;;;;;;1.07;0.60;;;;;;;-144.22;100.00;60274.75;6278830;28;20233;-41
2022/09/28 03:09:33;;;;;;;0.80;0.63;;;;;;;-144.22;100.00;60274.75;6263717;28;20226;-40
2022/09/28 03:12:36;;;;;;;1.00;0.70;;;;;;;-144.22;100.00;60274.75;6260132;28;20245;-40
2022/09/28 03:15:40;;;;;;;3.40;0.93;;;;;;;-144.22;100.00;60274.75;6277122;28;20248;-41
2022/09/28 03:18:49;;;;;;;0.50;0.40;;;;;;;-144.22;100.00;60274.75;6259673;28;20571;-40
2022/09/28 03:21:51;;;;;;;1.90;0.50;;;;;;;-144.22;100.00;60274.75;6257121;28;20291;-42
2022/09/28 03:24:53;;;;;;;0.50;0.50;;;;;;;-144.22;100.00;60274.75;6259773;28;20235;-40
2022/09/28 03:27:56;;;;;;;2.10;0.60;;;;;;;-144.22;100.00;60274.75;6259949;28;20233;-41
2022/09/28 03:30:58;;;;;;;0.30;0.30;;;;;;;-144.22;100.00;60274.75;6262112;28;20252;-41
2022/09/28 03:34:01;;;;;;;0.30;0.30;;;;;;;-144.22;100.00;60274.75;6282343;28;20231;-40
2022/09/28 03:37:03;;;;;;;2.97;0.60;;;;;;;-144.22;100.00;60274.75;6280808;28;20375;-41
2022/09/28 03:40:05;;;;;;;0.30;0.30;;;;;;;-144.22;100.00;60274.75;6280882;28;20233;-40
2022/09/28 03:43:08;;;;;;;0.20;0.20;;;;;;;-144.22;100.00;60274.75;6264691;28;20232;-43
2022/09/28 03:46:11;;;;;;;3.10;0.50;;;;;;;-144.22;100.00;60274.75;6262783;28;20267;-41
2022/09/28 03:49:17;;;;;;;0.67;0.37;;;;;;;-144.22;100.00;60274.75;6265223;28;20323;-41
2022/09/28 03:52:19;;;;;;;0.17;0.17;;;;;;;-144.22;100.00;60274.75;6281833;28;20263;-40
2022/09/28 03:55:21;;;;;;;0.13;0.13;;;;;;;-144.22;100.00;60274.75;6263747;28;20252;-40
2022/09/28 03:58:26;;;;;;;0.80;0.20;;;;;;;-144.22;100.00;60274.75;6263503;28;20252;-41
2022/09/28 04:01:28;;;;;;;1.20;0.40;;;;;;;-144.22;100.00;60274.75;6264083;28;20242;-41
2022/09/28 04:04:31;;;;;;;0.70;0.27;;;;;;;-144.22;100.00;60274.75;6282127;28;20225;-41
2022/09/28 04:07:33;;;;;;;0.37;0.30;;;;;;;-144.22;100.00;60274.75;6279713;28;20325;-41
2022/09/28 04:10:35;;;;;;;0.23;0.10;;;;;;;-144.22;100.00;60274.75;6282025;28;20236;-41
2022/09/28 04:13:38;;;;;;;0.77;0.30;;;;;;;-144.22;100.00;60274.75;6263355;28;20235;-41
2022/09/28 04:16:43;;;;;;;1.20;0.30;;;;;;;-144.22;100.00;60274.75;6279056;28;20713;-40
2022/09/28 04:19:48;;;;;;;0.10;0.10;;;;;;;-144.22;100.00;60274.75;6269381;28;20594;-40
2022/09/28 04:23:00;;;;;;;0.30;0.27;;;;;;;-144.22;100.00;60274.75;6300112;28;20230;-40
2022/09/28 04:26:04;;;;;;;1.93;0.40;;;;;;;-144.22;100.00;60274.75;6280698;28;20222;-40
2022/09/28 04:29:14;;;;;;;0.87;0.30;;;;;;;-144.22;100.00;60274.75;6267973;28;20287;-41
2022/09/28 04:32:27;;;;;;;1.47;0.20;;;;;;;-144.22;100.00;60274.75;6278836;28;20244;-41
2022/09/28 04:35:29;;;;;;;0.57;0.40;;;;;;;-144.22;100.00;60274.75;6281270;28;20720;-41
2022/09/28 04:38:32;;;;;;;2.77;0.33;;;;;;;-144.22;100.00;60274.75;6281482;28;20610;-40
2022/09/28 04:41:54;;;;;;;1.00;0.27;;;;;;;-144.22;100.00;60274.75;6279600;28;20238;-41
2022/09/28 04:44:57;;;;;;;0.30;0.30;;;;;;;-144.22;100.00;60274.75;6263749;28;20807;-42
2022/09/28 04:48:00;;;;;;;1.80;0.27;;;;;;;-144.22;100.00;60274.75;6262343;28;20719;-40
2022/09/28 04:51:24;;;;;;;1.90;0.30;;;;;;;-144.22;100.00;60274.75;6280064;28;20229;-40
2022/09/28 04:54:26;;;;;;;1.30;0.40;;;;;;;-144.22;100.00;60274.75;6278916;28;20832;-40
2022/09/28 04:57:28;;;;;;;2.77;2.00;;;;;;;-144.22;100.00;60274.75;6279795;28;20237;-41
2022/09/28 05:00:34;;;;;;;0.87;0.50;;;;;;;-144.22;100.00;60274.75;6262406;28;20235;-40
2022/09/28 05:03:58;;;;;;;0.40;0.40;;;;;;;-144.22;100.00;60274.75;6277308;28;20324;-40
2022/09/28 05:07:09;;;;;;;2.17;0.20;;;;;;;-144.22;100.00;60274.75;6278977;28;20232;-40
2022/09/28 05:10:12;;;;;;;0.70;0.23;;;;;;;-144.22;100.00;60274.75;6279738;28;20594;-41
2022/09/28 05:13:17;;;;;;;0.30;0.30;;;;;;;-144.22;100.00;60274.75;6279763;28;20574;-41
2022/09/28 05:16:19;;;;;;;0.30;0.30;;;;;;;-144.22;100.00;60274.75;6279565;28;20586;-40
2022/09/28 05:19:44;;;;;;;0.67;0.20;;;;;;;-144.22;100.00;60274.75;6278335;28;20234;-40
2022/09/28 05:22:46;;;;;;;0.20;0.20;;;;;;;-144.22;100.00;60274.75;6279548;28;20236;-43
2022/09/28 05:25:49;;;;;;;0.40;0.30;;;;;;;-144.22;100.00;60274.75;6260874;28;20373;-41
2022/09/28 05:28:58;;;;;;;0.13;0.10;;;;;;;-144.22;100.00;60274.75;6260348;28;20707;-40
2022/09/28 05:32:19;;;;;;;0.27;0.27;;;;;;;-144.22;100.00;60274.75;6278302;28;20233;-41
2022/09/28 05:35:44;;;;;;;0.47;0.30;;;;;;;-144.22;100.00;60274.75;6281190;28;20243;-41
2022/09/28 05:38:50;;;;;;;0.53;0.30;;;;;;;-144.22;100.00;60274.75;6260976;28;20809;-40
2022/09/28 05:41:53;;;;;;;0.70;0.30;;;;;;;-144.22;100.00;60274.75;6277315;28;20222;-42
2022/09/28 05:44:59;;;;;;;0.80;0.40;;;;;;;-144.22;100.00;60274.75;6277065;28;20237;-41
2022/09/28 05:48:01;;;;;;;0.30;0.30;;;;;;;-144.22;100.00;60274.75;6276758;28;20243;-40
2022/09/28 05:51:03;;;;;;;0.20;0.20;;;;;;;-144.22;100.00;60274.75;6276570;28;20220;-41
2022/09/28 05:54:05;;;;;;;2.83;0.30;;;;;;;-144.22;100.00;60274.75;6260148;28;20214;-42
2022/09/28 05:57:11;;;;;;;0.37;0.30;;;;;;;-144.22;100.00;60274.75;6277781;28;20238;-41
2022/09/28 06:00:13;;;;;;;0.37;0.20;;;;;;;-144.22;100.00;60274.75;6277437;28;20260;-40
2022/09/28 06:03:21;;;;;;;0.60;0.30;;;;;;;-144.22;100.00;60274.75;6276950;28;20223;-40
2022/09/28 06:06:23;;;;;;;0.57;0.23;;;;;;;-144.22;100.00;60274.75;6276487;28;20284;-40
2022/09/28 06:09:25;;;;;;;0.70;0.43;;;;;;;-144.22;100.00;60274.75;6277070;28;20233;-41
2022/09/28 06:12:53;;;;;;;1.57;0.20;;;;;;;-144.22;100.00;60274.75;6276460;28;20280;-41
2022/09/28 06:15:55;;;;;;;0.93;0.30;;;;;;;-144.22;100.00;60274.75;6259455;28;20246;-40
2022/09/28 06:18:57;;;;;;;0.20;0.20;;;;;;;-144.22;100.00;60274.75;6258724;28;20321;-40
2022/09/28 06:22:15;;;;;;;0.40;0.30;;;;;;;-144.22;100.00;60274.75;6258999;28;20244;-40
2022/09/28 06:25:28;;;;;;;0.57;0.20;;;;;;;-144.22;100.00;60274.75;6276784;28;20230;-40
2022/09/28 06:28:31;;;;;;;0.43;0.40;;;;;;;-144.22;100.00;60274.75;6278043;28;20744;-40
2022/09/28 06:31:32;;;;;;;0.20;0.20;;;;;;;-144.22;100.00;60274.75;6262295;28;20237;-42
2022/09/28 06:34:35;;;;;;;0.60;0.20;;;;;;;-144.22;100.00;60274.75;6246483;28;20237;-41
2022/09/28 06:37:36;;;;;;;0.50;0.40;;;;;;;-144.22;100.00;60274.75;6276503;28;20252;-41
2022/09/28 06:40:39;;;;;;;0.30;0.30;;;;;;;-144.22;100.00;60274.75;6260032;28;20228;-40
2022/09/28 06:43:41;;;;;;;0.60;0.30;;;;;;;-144.22;100.00;60274.75;6277773;28;20784;-41
2022/09/28 06:46:45;;;;;;;0.27;0.27;;;;;;;-144.22;100.00;60274.75;6277827;28;20239;-41
2022/09/28 06:50:11;;;;;;;0.40;0.30;;;;;;;-144.22;100.00;60274.75;6263713;28;20262;-41
2022/09/28 06:53:39;;;;;;;0.30;0.30;;;;;;;-144.22;100.00;60274.75;6250392;28;20702;-40
2022/09/28 06:57:04;;;;;;;1.63;0.43;;;;;;;-144.22;100.00;60274.75;6244256;28;20281;-41
2022/09/28 07:00:07;;;;;;;2.17;0.57;;;;;;;-144.22;100.00;60274.75;6258787;28;20220;-40
2022/09/28 07:03:13;;;;;;;2.67;0.30;;;;;;;-144.22;100.00;60274.75;6275934;28;20212;-40
2022/09/28 07:06:46;;;;;;;1.47;0.47;;;;;;;-144.22;100.00;60274.75;6250620;28;20236;-41
2022/09/28 07:10:10;;;;;;;2.37;0.50;;;;;;;-144.22;100.00;60274.75;6282240;28;20236;-43
2022/09/28 07:13:31;;;;;;;2.30;0.90;;;;;;;-144.22;100.00;60274.75;6281703;28;20235;-40
2022/09/28 07:16:56;;;;;;;8.13;1.13;;;;;;;-144.22;100.00;60274.75;6280771;28;20245;-40
2022/09/28 07:20:15;;;;;;;2.03;0.70;;;;;;;-144.22;100.00;60274.75;6280218;28;20244;-41
2022/09/28 07:23:22;;;;;;;0.70;0.50;;;;;;;-144.22;100.00;60274.75;6281654;28;20587;-41
2022/09/28 07:26:50;;;;;;;2.73;0.60;;;;;;;-144.22;100.00;60274.75;6251593;28;20240;-41
2022/09/28 07:30:07;;;;;;;0.93;0.70;;;;;;;-144.22;100.00;60274.75;6280870;28;20284;-41
2022/09/28 07:33:50;;;;;;;0.93;0.70;;;;;;;-144.22;100.00;60274.75;6269442;28;20604;-41
2022/09/28 07:37:04;;;;;;;1.07;0.70;;;;;;;-144.22;100.00;60274.75;6265700;28;20231;-41
2022/09/28 07:43:27;;;;;;;0.50;0.50;;;;;;;-144.22;100.00;60274.75;6281270;28;20324;-41
2022/09/28 07:46:31;;;;;;;0.50;0.50;;;;;;;-144.22;100.00;60274.75;6263802;28;20287;-41
2022/09/28 07:49:38;;;;;;;0.73;0.40;;;;;;;-144.22;100.00;60274.75;6258964;28;20231;-42
2022/09/28 07:53:07;;;;;;;0.70;0.53;;;;;;;-144.22;100.00;60274.75;6260155;28;20222;-41
2022/09/28 07:56:29;;;;;;;0.50;0.50;;;;;;;-144.22;100.00;60274.75;6280236;28;20235;-40
2022/09/28 07:59:52;;;;;;;0.50;0.43;;;;;;;-144.22;100.00;60274.75;6280639;28;20595;-41
2022/09/28 08:03:03;;;;;;;1.67;0.40;;;;;;;-144.22;100.00;60274.75;6279999;28;20224;-40
2022/09/28 08:06:09;;;;;;;1.27;0.73;;;;;;;-144.22;100.00;60274.75;6280959;28;20565;-40
2022/09/28 08:09:12;;;;;;;2.43;1.00;;;;;;;-144.22;100.00;60274.75;6264313;28;20620;-41
2022/09/28 08:12:32;;;;;;;2.03;1.00;;;;;;;-144.22;100.00;60274.75;6281389;28;20228;-41
2022/09/28 08:16:07;;;;;;;0.70;0.70;;;;;;;-144.22;100.00;60274.75;6236218;28;20708;-42
2022/09/28 08:19:18;;;;;;;5.30;1.17;;;;;;;-144.22;100.00;60274.75;6263540;28;20238;-41
2022/09/28 08:22:21;;;;;;;2.40;0.87;;;;;;;-144.22;100.00;60274.75;6263448;28;20246;-42
2022/09/28 08:25:26;;;;;;;0.70;0.70;;;;;;;-144.22;100.00;60274.75;6262608;28;20239;-41
2022/09/28 08:28:28;;;;;;;1.73;0.67;;;;;;;-144.22;100.00;60274.75;6279065;28;20726;-42
2022/09/28 08:31:35;;;;;;;5.17;0.70;;;;;;;-144.22;100.00;60274.75;6279193;28;20240;-44
2022/09/28 08:34:44;;;;;;;0.90;0.90;;;;;;;-144.22;100.00;60274.75;6278415;28;20241;-42
2022/09/28 08:38:06;;;;;;;0.77;0.63;;;;;;;-144.22;100.00;60274.75;6280190;28;20592;-41
2022/09/28 08:41:59;;;;;;;0.97;0.87;;;;;;;-144.22;100.00;60274.75;6266143;28;20285;-43
2022/09/28 08:45:35;;;;;;;1.57;0.90;;;;;;;-144.22;100.00;60274.75;6266207;28;20267;-42
2022/09/28 08:48:55;;;;;;;1.67;1.07;;;;;;;-144.22;100.00;60274.75;6261658;28;20639;-42
2022/09/28 08:52:50;;;;;;;0.90;0.90;;;;;;;-144.22;100.00;60274.75;6277706;28;20242;-42
2022/09/28 08:56:23;;;;;;;0.90;0.80;;;;;;;-144.22;100.00;60274.75;6247758;28;20640;-42
2022/09/28 08:59:36;;;;;;;1.87;0.60;;;;;;;-144.22;100.00;60274.75;6283962;28;20326;-42
2022/09/28 09:02:41;;;;;;;1.90;0.80;;;;;;;-144.22;100.00;60274.75;6260506;28;20331;-43
2022/09/28 09:06:25;;;;;;;1.40;1.10;;;;;;;-144.22;100.00;60274.75;6261892;28;20227;-42
2022/09/28 09:09:55;;;;;;;0.73;0.73;;;;;;;-144.22;100.00;60274.75;6281397;28;20234;-43
2022/09/28 09:13:20;;;;;;;1.77;0.90;;;;;;;-144.22;100.00;60274.75;6279611;28;20229;-42
2022/09/28 09:16:37;;;;;;;4.43;1.20;;;;;;;-144.22;100.00;60274.75;6279439;28;20242;-42
2022/09/28 09:20:04;;;;;;;1.10;1.00;;;;;;;-144.22;100.00;60274.75;6279989;28;20333;-42
2022/09/28 09:23:36;;;;;;;1.20;0.77;;;;;;;-144.22;100.00;60274.75;6261226;28;20265;-43
2022/09/28 09:26:39;;;;;;;1.10;0.90;;;;;;;-144.22;100.00;60274.75;6261337;28;20364;-43
2022/09/28 09:30:00;;;;;;;3.37;0.80;;;;;;;-144.22;100.00;60274.75;6277766;28;20219;-46
2022/09/28 09:33:21;;;;;;;4.93;0.90;;;;;;;-144.22;100.00;60274.75;6260925;28;20227;-42
2022/09/28 09:37:04;;;;;;;0.77;0.73;;;;;;;-144.22;100.00;60274.75;6279050;28;20229;-43
2022/09/28 09:40:35;;;;;;;1.17;0.87;;;;;;;-144.22;100.00;60274.75;6278636;28;20328;-42
2022/09/28 09:44:02;;;;;;;0.90;0.77;;;;;;;-144.22;100.00;60274.75;6278444;28;20226;-42
2022/09/28 09:47:49;;;;;;;2.00;0.80;;;;;;;-144.22;100.00;60274.75;6277768;28;20238;-42
2022/09/28 09:51:03;;;;;;;1.30;0.70;;;;;;;-144.22;100.00;60274.75;6261009;28;20237;-42
2022/09/28 09:54:23;;;;;;;1.40;0.60;;;;;;;-144.22;100.00;60274.75;6260279;28;20309;-43
2022/09/28 09:57:39;;;;;;;1.57;0.60;;;;;;;-144.22;100.00;60274.75;6261117;28;20281;-43
2022/09/28 10:01:08;;;;;;;0.50;0.47;;;;;;;-144.22;100.00;60274.75;6281932;28;20768;-43
2022/09/28 10:04:38;;;;;;;1.17;0.40;;;;;;;-144.22;100.00;60274.75;6278583;28;20697;-44
2022/09/28 10:08:07;;;;;;;0.70;0.57;;;;;;;-144.22;100.00;60274.75;6276769;28;20218;-43
2022/09/28 10:11:20;;;;;;;1.63;0.60;;;;;;;-144.22;100.00;60274.75;6259997;28;20219;-43
2022/09/28 10:14:27;;;;;;;1.93;0.50;;;;;;;-144.22;100.00;60274.75;6278081;28;20223;-43
2022/09/28 10:17:36;;;;;;;0.30;0.30;;;;;;;-144.22;100.00;60274.75;6260228;28;20748;-43
2022/09/28 10:21:01;;;;;;;0.60;0.50;;;;;;;-144.22;100.00;60274.75;6254667;28;20236;-42
2022/09/28 10:24:34;;;;;;;0.20;0.20;;;;;;;-144.22;100.00;60274.75;6262629;28;20329;-42
2022/09/28 10:27:44;;;;;;;1.07;0.40;;;;;;;-144.22;100.00;60274.75;6253219;28;20709;-42
2022/09/28 10:30:46;;;;;;;0.63;0.33;;;;;;;-144.22;100.00;60274.75;6250680;28;20245;-43
2022/09/28 10:33:52;;;;;;;0.67;0.40;;;;;;;-144.22;100.00;60274.75;6272118;28;20234;-44
2022/09/28 10:37:02;;;;;;;0.50;0.30;;;;;;;-144.22;100.00;60274.75;6277132;28;20238;-43
2022/09/28 10:40:42;;;;;;;3.90;0.40;;;;;;;-144.22;100.00;60274.75;6276785;28;20234;-42
2022/09/28 10:44:05;;;;;;;0.50;0.40;;;;;;;-144.22;100.00;60274.75;6265408;28;20312;-43
2022/09/28 10:47:20;;;;;;;0.40;0.40;;;;;;;-144.22;100.00;60274.75;6267701;28;20737;-43
2022/09/28 10:50:25;;;;;;;1.43;0.43;;;;;;;-144.22;100.00;60274.75;6256252;28;20230;-43
2022/09/28 10:53:38;;;;;;;0.93;0.50;;;;;;;-144.22;100.00;60274.75;6245312;28;20308;-44
2022/09/28 10:56:41;;;;;;;0.33;0.30;;;;;;;-144.22;100.00;60274.75;6268342;28;20234;-43
2022/09/28 10:59:50;;;;;;;0.30;0.30;;;;;;;-144.22;100.00;60274.75;6282240;28;20707;-43
2022/09/28 11:02:52;;;;;;;0.20;0.20;;;;;;;-144.22;100.00;60274.75;6282127;28;20222;-43
2022/09/28 11:06:01;;;;;;;1.50;0.40;;;;;;;-144.22;100.00;60274.75;6264645;28;20601;-44
2022/09/28 11:09:22;;;;;;;0.87;0.40;;;;;;;-144.22;100.00;60274.75;6281484;28;20605;-45
2022/09/28 11:12:43;;;;;;;1.53;0.80;;;;;;;-144.22;100.00;60274.75;6282393;28;20237;-43
2022/09/28 11:15:46;;;;;;;1.70;0.40;;;;;;;-144.22;100.00;60274.75;6263902;28;20235;-43
2022/09/28 11:19:19;;;;;;;1.60;0.40;;;;;;;-144.22;100.00;60274.75;6263097;28;20241;-44
2022/09/28 11:22:28;;;;;;;0.53;0.53;;;;;;;-144.22;100.00;60274.75;6249456;28;20601;-43
2022/09/28 11:25:35;;;;;;;0.40;0.40;;;;;;;-144.22;100.00;60274.75;6263835;28;20959;-44
2022/09/28 11:28:40;;;;;;;1.83;0.40;;;;;;;-144.22;100.00;60274.75;6280522;28;20264;-43
2022/09/28 11:31:59;;;;;;;0.80;0.50;;;;;;;-144.22;100.00;60274.75;6263995;28;20234;-43
2022/09/28 11:35:02;;;;;;;0.47;0.43;;;;;;;-144.22;100.00;60274.75;6279232;28;20325;-44
2022/09/28 11:38:17;;;;;;;0.40;0.40;;;;;;;-144.22;100.00;60274.75;6278917;28;20239;-43
2022/09/28 11:42:02;;;;;;;1.67;0.47;;;;;;;-144.22;100.00;60274.75;6244395;28;20215;-44
2022/09/28 11:45:24;;;;;;;2.20;0.50;;;;;;;-144.22;100.00;60274.75;6263397;28;20242;-43
2022/09/28 11:48:39;;;;;;;0.40;0.40;;;;;;;-144.22;100.00;60274.75;6264912;28;20239;-43
2022/09/28 11:51:44;;;;;;;2.47;0.50;;;;;;;-144.22;100.00;60274.75;6281383;28;20235;-43
2022/09/28 11:54:58;;;;;;;2.57;0.60;;;;;;;-144.22;100.00;60274.75;6278944;28;20325;-44
2022/09/28 11:58:21;;;;;;;1.23;0.60;;;;;;;-144.22;100.00;60274.75;6279309;28;20227;-44
2022/09/28 12:01:34;;;;;;;1.77;1.17;;;;;;;-144.22;100.00;60274.75;6279811;28;20223;-43
2022/09/28 12:04:55;;;;;;;0.70;0.63;;;;;;;-144.22;100.00;60274.75;6279472;28;20238;-44
2022/09/28 12:08:26;;;;;;;1.90;0.60;;;;;;;-144.22;100.00;60274.75;6262764;28;20234;-43
2022/09/28 12:11:46;;;;;;;1.47;0.60;;;;;;;-144.22;100.00;60274.75;6281563;28;20279;-43
2022/09/28 12:14:54;;;;;;;0.70;0.50;;;;;;;-144.22;100.00;60274.75;6280582;28;20241;-44
2022/09/28 12:18:04;;;;;;;2.33;0.70;;;;;;;-144.22;100.00;60274.75;6280723;28;20583;-43
2022/09/28 12:21:12;;;;;;;0.97;0.53;;;;;;;-144.22;100.00;60274.75;6280298;28;20620;-43
2022/09/28 12:24:23;;;;;;;0.60;0.60;;;;;;;-144.22;100.00;60274.75;6280561;28;20674;-43
2022/09/28 12:27:42;;;;;;;0.60;0.60;;;;;;;-144.22;100.00;60274.75;6280905;28;20230;-43
2022/09/28 12:30:48;;;;;;;1.07;0.70;;;;;;;-144.22;100.00;60274.75;6280403;28;20242;-43
2022/09/28 12:33:51;;;;;;;2.93;0.50;;;;;;;-144.22;100.00;60274.75;6280502;28;20262;-43
2022/09/28 12:37:07;;;;;;;2.93;0.90;;;;;;;-144.22;100.00;60274.75;6280607;28;20230;-45
2022/09/28 12:40:36;;;;;;;0.60;0.60;;;;;;;-144.22;100.00;60274.75;6280809;28;20710;-43
2022/09/28 12:44:05;;;;;;;0.50;0.50;;;;;;;-144.22;100.00;60274.75;6271919;28;20230;-43
2022/09/28 12:47:45;;;;;;;1.40;0.67;;;;;;;-144.22;100.00;60274.75;6279426;28;20860;-43
2022/09/28 12:51:23;;;;;;;0.40;0.40;;;;;;;-144.22;100.00;60274.75;6280943;28;20253;-43
2022/09/28 12:54:49;;;;;;;0.60;0.50;;;;;;;-144.22;100.00;60274.75;6258145;28;20223;-46
2022/09/28 12:58:14;;;;;;;0.70;0.60;;;;;;;-144.22;100.00;60274.75;6263833;28;20262;-43
2022/09/28 13:01:27;;;;;;;0.70;0.40;;;;;;;-144.22;100.00;60274.75;6269143;28;20713;-43
2022/09/28 13:05:11;;;;;;;1.97;0.60;;;;;;;-144.22;100.00;60274.75;6278870;28;20234;-44
2022/09/28 13:08:32;;;;;;;0.67;0.50;;;;;;;-144.22;100.00;60274.75;6279298;28;20236;-43
2022/09/28 13:11:47;;;;;;;0.50;0.30;;;;;;;-144.22;100.00;60274.75;6279799;28;20230;-43
2022/09/28 13:15:25;;;;;;;0.40;0.30;;;;;;;-144.22;100.00;60274.75;6279268;28;20230;-44
2022/09/28 13:18:42;;;;;;;0.83;0.30;;;;;;;39.91;100.00;60274.75;6279372;28;20686;-43
2022/09/28 13:22:00;;;;;;;0.60;0.30;;;;;;;-144.22;100.00;60274.75;6261740;28;20276;-44
2022/09/28 13:25:10;;;;;;;0.60;0.60;;;;;;;-144.22;100.00;60274.75;6278298;28;20333;-45
2022/09/28 13:28:14;;;;;;;0.30;0.28;;;;;;;28.23;25.97;95922.22;6278204;28;20223;-44
2022/09/28 13:31:21;;;;;;;0.52;0.32;;;;;;;26.36;29.17;95930.28;6278086;28;20237;-43
2022/09/28 13:34:35;;;;;;;0.40;0.30;;;;;;;25.67;29.75;95934.00;6279170;28;20230;-43
2022/09/28 13:37:37;;;;;;;0.20;0.20;;;;;;;26.76;28.75;95929.59;6278007;28;20231;-44
2022/09/28 13:41:03;;;;;;;1.70;0.63;;;;;;;25.11;29.99;95934.63;6278687;28;20237;-43
2022/09/28 13:44:20;;;;;;;0.77;0.30;;;;;;;24.04;32.64;95940.72;6278252;28;20318;-43
2022/09/28 13:48:01;;;;;;;1.10;0.30;;;;;;;23.71;36.49;95942.44;6278354;28;20737;-43
2022/09/28 13:51:25;;;;;;;0.30;0.30;;;;;;;23.60;33.67;95939.84;6277838;28;20234;-46
2022/09/28 13:54:35;;;;;;;0.60;0.40;;;;;;;22.76;34.89;95939.81;6279489;28;20602;-45
2022/09/28 13:58:04;;;;;;;0.30;0.30;;;;;;;22.59;35.18;95933.53;6253472;28;20284;-43
2022/09/28 14:01:11;;;;;;;0.67;0.60;;;;;;;22.30;37.63;95946.19;6253552;28;20227;-44
2022/09/28 14:04:19;;;;;;;0.30;0.30;;;;;;;22.06;37.28;95950.81;6282704;28;20219;-43
2022/09/28 14:07:33;;;;;;;2.30;0.30;;;;;;;21.52;35.65;95949.31;6278662;28;20309;-43
2022/09/28 14:10:55;;;;;;;0.30;0.30;;;;;;;20.99;38.11;95950.19;6278874;28;20230;-43
2022/09/28 14:14:00;;;;;;;0.93;0.20;;;;;;;21.01;38.14;95945.41;6277493;28;20713;-44
2022/09/28 14:17:17;;;;;;;0.50;0.30;;;;;;;20.80;37.47;95954.00;6278583;28;20237;-43
2022/09/28 14:20:23;;;;;;;0.23;0.23;;;;;;;20.52;38.36;95957.28;6278517;28;20542;-45
2022/09/28 14:23:34;;;;;;;0.50;0.30;;;;;;;20.24;38.83;95969.38;6278865;28;20225;-44
2022/09/28 14:27:07;;;;;;;2.33;0.30;;;;;;;19.66;39.49;95974.38;6278177;28;20710;-44
2022/09/28 14:30:12;;;;;;;0.60;0.27;;;;;;;19.18;41.37;95974.97;6277576;28;20227;-44
2022/09/28 14:33:21;;;;;;;0.43;0.30;;;;;;;19.00;41.88;95974.09;6271464;28;20563;-43
2022/09/28 14:43:33;;;;;;;0.30;0.30;;;;;;;18.27;43.89;95965.66;6276796;28;20701;-43
2022/09/28 14:46:37;;;;;;;0.27;0.27;;;;;;;18.19;46.24;95976.59;6277721;28;20233;-43
2022/09/28 14:49:44;;;;;;;2.60;0.30;;;;;;;18.17;46.68;95987.47;6278903;28;20245;-43
2022/09/28 14:52:51;;;;;;;1.67;0.20;;;;;;;18.27;46.36;95989.69;6277668;28;20697;-44